Time;durP1;ratioP1;P1;durP2;ratioP2;P2;SDS_P1;SDS_P2;PMS_P1;PMS_P2;Temp;Humidity;BMP_temperature;BMP_pressure;BME280_temperature;BME280_humidity;BME280_pressure;Samples;Min_cycle;Max_cycle;Signal;HPM_P1;HPM_P2
2022/05/09 00:01:47;;;;;;;8.90;4.18;;;;;;;13.72;64.82;100909.97;5113030;28;20070;-69
2022/05/09 00:04:31;;;;;;;7.10;3.58;;;;;;;13.72;64.87;100917.78;5112891;28;20082;-69
2022/05/09 00:07:18;;;;;;;5.60;3.13;;;;;;;13.72;64.75;100919.53;5112941;28;20058;-69
2022/05/09 00:10:03;;;;;;;6.32;3.20;;;;;;;13.71;64.60;100918.63;5113261;28;20513;-69
2022/05/09 00:12:47;;;;;;;;;;;;;;;13.69;64.32;100917.75;5114252;28;20043;-69
2022/05/09 00:15:37;;;;;;;4.82;3.47;;;;;;;13.69;64.58;100912.53;5112939;28;20275;-70
2022/05/09 00:18:21;;;;;;;6.07;3.65;;;;;;;13.68;64.69;100914.25;5113167;28;20054;-69
2022/05/09 00:21:06;;;;;;;5.10;2.67;;;;;;;13.69;64.84;100908.19;5112557;28;20038;-69
2022/05/09 00:23:51;;;;;;;;;;;;;;;13.67;64.61;100916.84;5113735;28;20076;-68
2022/05/09 00:26:35;;;;;;;7.07;3.55;;;;;;;13.65;64.98;100911.59;5113299;28;19918;-69
2022/05/09 00:29:23;;;;;;;4.68;3.45;;;;;;;13.66;64.51;100909.88;5112758;28;20042;-69
2022/05/09 00:32:08;;;;;;;5.43;3.67;;;;;;;13.63;64.83;100909.81;5112997;28;20046;-69
2022/05/09 00:34:51;;;;;;;5.38;3.25;;;;;;;13.62;64.67;100902.84;5113818;28;20058;-69
2022/05/09 00:37:36;;;;;;;6.70;3.60;;;;;;;13.63;64.73;100902.88;5113212;28;20054;-69
2022/05/09 00:40:21;;;;;;;4.57;2.78;;;;;;;13.64;64.55;100894.22;5113023;28;20405;-70
2022/05/09 00:43:29;;;;;;;8.10;3.38;;;;;;;13.64;64.63;100895.94;5113797;28;20116;-69
2022/05/09 00:46:16;;;;;;;7.20;3.63;;;;;;;13.65;64.96;100895.09;5127440;28;20042;-69
2022/05/09 00:49:23;;;;;;;6.03;3.53;;;;;;;13.64;64.81;100893.34;5126775;28;20047;-69
2022/05/09 00:52:11;;;;;;;4.28;3.05;;;;;;;13.64;64.84;100896.81;5112169;28;20054;-69
2022/05/09 00:55:06;;;;;;;4.30;3.33;;;;;;;13.63;64.64;100892.44;5115656;28;20555;-69
2022/05/09 00:58:11;;;;;;;4.70;3.03;;;;;;;13.58;64.62;100891.53;5117048;28;20104;-69
2022/05/09 01:00:57;;;;;;;4.25;3.15;;;;;;;13.55;64.88;100894.94;5116631;28;20177;-68
2022/05/09 01:03:43;;;;;;;4.60;3.03;;;;;;;13.54;64.84;100892.31;5117614;28;20050;-69
2022/05/09 01:06:27;;;;;;;5.43;3.17;;;;;;;13.53;64.95;100895.75;5116521;28;20145;-69
2022/05/09 01:09:11;;;;;;;5.05;3.03;;;;;;;13.53;64.66;100895.75;5116770;28;20050;-69
2022/05/09 01:11:56;;;;;;;7.82;3.17;;;;;;;13.56;64.88;100895.81;5115904;28;20119;-69
2022/05/09 01:14:40;;;;;;;10.98;3.67;;;;;;;13.56;65.08;100888.00;5116176;28;20116;-70
2022/05/09 01:17:24;;;;;;;6.22;3.63;;;;;;;13.56;64.97;100885.41;5116858;28;20126;-69
2022/05/09 01:20:09;;;;;;;6.50;3.97;;;;;;;13.58;64.87;100893.22;5116166;28;20062;-69
2022/05/09 01:22:58;;;;;;;5.63;3.55;;;;;;;13.57;64.82;100894.06;5116402;28;20055;-69
2022/05/09 01:25:42;;;;;;;5.10;3.30;;;;;;;13.55;64.83;100886.25;5116222;28;20096;-69
2022/05/09 01:28:27;;;;;;;5.22;3.35;;;;;;;13.56;64.60;100890.59;5116828;28;20038;-69
2022/05/09 01:31:16;;;;;;;6.22;3.28;;;;;;;13.55;64.84;100881.03;5115898;28;20126;-69
2022/05/09 01:34:08;;;;;;;5.13;3.30;;;;;;;13.53;64.91;100880.13;5116312;28;20123;-69
2022/05/09 01:36:59;;;;;;;5.65;3.55;;;;;;;13.52;64.99;100880.97;5115883;28;20054;-69
2022/05/09 01:39:42;;;;;;;4.63;3.50;;;;;;;13.52;64.82;100875.78;5115677;28;20100;-69
2022/05/09 01:42:26;;;;;;;4.38;2.85;;;;;;;13.52;64.74;100874.06;5116777;28;20116;-69
2022/05/09 01:45:12;;;;;;;4.40;3.35;;;;;;;13.52;64.76;100881.88;5116702;28;20533;-68
2022/05/09 01:50:59;;;;;;;8.05;3.28;;;;;;;13.51;64.64;100874.91;5116020;28;20069;-69
2022/05/09 01:53:50;;;;;;;4.95;2.80;;;;;;;13.51;64.59;100876.63;5115849;28;20054;-69
2022/05/09 01:56:36;;;;;;;5.30;2.85;;;;;;;13.50;64.86;100872.25;5116043;28;20055;-69
2022/05/09 01:59:21;;;;;;;5.80;3.55;;;;;;;13.50;64.58;100875.75;5130132;27;20058;-69
2022/05/09 02:02:10;;;;;;;;;;;;;;;13.48;64.96;100869.66;5116374;28;20042;-69
2022/05/09 02:04:55;;;;;;;6.95;3.58;;;;;;;13.47;64.75;100880.91;5114453;28;20385;-69
2022/05/09 02:07:42;;;;;;;;;;;;;;;13.47;64.26;100887.84;5116360;28;20051;-69
2022/05/09 02:10:26;;;;;;;6.55;3.42;;;;;;;13.46;64.64;100888.72;5116034;28;19926;-69
2022/05/09 02:13:10;;;;;;;5.15;3.42;;;;;;;13.46;64.75;100891.31;5115251;28;20106;-69
2022/05/09 02:15:54;;;;;;;6.95;4.20;;;;;;;13.46;64.72;100886.09;5114878;28;20046;-69
2022/05/09 02:18:38;;;;;;;8.07;3.85;;;;;;;13.46;64.80;100875.69;5114625;28;20097;-70
2022/05/09 02:21:26;;;;;;;5.13;3.53;;;;;;;13.46;64.84;100883.50;5128979;27;20410;-69
2022/05/09 02:24:10;;;;;;;6.55;3.53;;;;;;;13.46;64.88;100886.09;5114588;28;20090;-69
2022/05/09 02:26:55;;;;;;;6.78;3.90;;;;;;;13.47;64.89;100882.66;5115556;28;20047;-69
2022/05/09 02:29:42;;;;;;;6.05;3.85;;;;;;;13.45;64.70;100881.75;5114795;28;20092;-69
2022/05/09 02:32:26;;;;;;;7.30;3.85;;;;;;;13.45;64.84;100879.13;5114964;28;20054;-69
2022/05/09 02:35:09;;;;;;;6.05;3.53;;;;;;;13.43;65.04;100879.09;5114568;28;20533;-69
2022/05/09 02:37:53;;;;;;;7.82;4.15;;;;;;;13.43;65.00;100884.31;5114956;28;20575;-70
2022/05/09 02:40:37;;;;;;;8.43;4.63;;;;;;;13.42;64.78;100879.94;5115705;28;20105;-69
2022/05/09 02:43:25;;;;;;;6.10;3.78;;;;;;;13.42;64.95;100873.88;5114907;28;20051;-69
2022/05/09 02:46:09;;;;;;;8.75;3.70;;;;;;;13.42;64.55;100876.47;5114715;28;20088;-68
2022/05/09 02:48:55;;;;;;;8.52;4.18;;;;;;;13.42;64.46;100871.25;5114660;28;20078;-69
2022/05/09 02:51:39;;;;;;;7.22;4.30;;;;;;;13.40;64.87;100872.13;5115394;28;20046;-69
2022/05/09 02:54:26;;;;;;;9.57;4.80;;;;;;;13.38;64.60;100867.72;5114017;28;20055;-69
2022/05/09 02:57:09;;;;;;;6.65;3.55;;;;;;;13.38;64.92;100870.31;5114146;28;20045;-69
2022/05/09 02:59:53;;;;;;;8.55;3.90;;;;;;;13.37;64.66;100871.16;5114920;28;20070;-68
2022/05/09 03:02:37;;;;;;;8.80;4.80;;;;;;;13.36;64.90;100875.47;5115230;28;20043;-69
2022/05/09 03:05:21;;;;;;;7.40;4.75;;;;;;;13.35;64.76;100872.84;5114081;28;20050;-69
2022/05/09 03:08:07;;;;;;;9.52;4.40;;;;;;;13.35;64.80;100860.69;5114838;28;20105;-68
2022/05/09 03:10:51;;;;;;;9.02;4.50;;;;;;;13.34;64.35;100865.91;5115045;28;20105;-69
2022/05/09 03:13:36;;;;;;;;;;;;;;;13.31;64.45;100864.13;5114511;28;20468;-68
2022/05/09 03:16:20;;;;;;;10.95;4.72;;;;;;;13.31;64.65;100866.72;5114646;28;19998;-68
2022/05/09 03:19:04;;;;;;;7.32;4.50;;;;;;;13.31;64.45;100858.03;5114156;28;20116;-69
2022/05/09 03:21:50;;;;;;;;;;;;;;;13.29;64.55;100860.63;5115041;28;20189;-69
2022/05/09 03:24:34;;;;;;;;;;;;;;;13.27;64.69;100857.09;5114969;28;20381;-69
2022/05/09 03:27:18;;;;;;;;;;;;;;;13.28;64.70;100863.16;5114751;28;20022;-70
2022/05/09 03:30:02;;;;;;;;;;;;;;;13.27;64.71;100858.81;5114071;28;20007;-68
2022/05/09 03:32:47;;;;;;;;;;;;;;;13.28;64.52;100855.34;5114829;28;19923;-69
2022/05/09 03:35:31;;;;;;;;;;;;;;;13.29;64.31;100863.22;5115113;28;19974;-68
2022/05/09 03:38:14;;;;;;;;;;;;;;;13.29;64.58;100859.72;5114061;28;19964;-69
2022/05/09 03:40:59;;;;;;;;;;;;;;;13.29;64.70;100859.72;5114249;28;19996;-69
2022/05/09 03:43:43;;;;;;;;;;;;;;;13.28;64.45;100856.25;5113656;28;19923;-68
2022/05/09 03:46:27;;;;;;;;;;;;;;;13.28;64.29;100856.25;5114890;28;19975;-69
2022/05/09 03:49:12;;;;;;;;;;;;;;;13.29;64.72;100857.13;5114264;28;19923;-69
2022/05/09 03:51:55;;;;;;;;;;;;;;;13.27;64.64;100854.50;5114082;28;19964;-68
2022/05/09 03:54:39;;;;;;;;;;;;;;;13.27;64.39;100857.09;5114050;28;19923;-69
2022/05/09 03:57:24;;;;;;;;;;;;;;;13.27;64.75;100856.22;5113735;28;20412;-69
2022/05/09 04:00:08;;;;;;;;;;;;;;;13.24;64.29;100850.09;5114689;28;19970;-69
2022/05/09 04:02:52;;;;;;;;;;;;;;;13.24;64.62;100852.69;5113354;28;19922;-70
2022/05/09 04:05:42;;;;;;;;;;;;;;;13.23;64.41;100853.56;5114235;28;19964;-69
2022/05/09 04:08:26;;;;;;;;;;;;;;;13.23;64.52;100852.69;5113152;28;19939;-69
2022/05/09 04:11:10;;;;;;;;;;;;;;;13.24;64.72;100854.44;5112917;28;19922;-69
2022/05/09 04:13:54;;;;;;;;;;;;;;;13.21;64.53;100850.06;5113592;28;19965;-69
2022/05/09 04:16:50;;;;;;;;;;;;;;;13.22;64.54;100853.53;5114242;28;20286;-68
2022/05/09 04:19:35;;;;;;;;;;;;;;;13.20;64.51;100856.13;5113932;28;19938;-68
2022/05/09 04:22:19;;;;;;;;;;;;;;;13.20;64.37;100850.00;5114456;28;19969;-69
2022/05/09 04:25:04;;;;;;;;;;;;;;;13.20;64.72;100848.31;5114492;28;19922;-69
2022/05/09 04:27:48;;;;;;;;;;;;;;;13.21;64.35;100846.56;5113302;28;19966;-69
2022/05/09 04:30:34;;;;;;;;;;;;;;;13.19;64.40;100848.25;5117077;28;19922;-69
2022/05/09 04:33:18;;;;;;;;;;;;;;;13.20;64.41;100852.63;5117500;28;19954;-69
2022/05/09 04:36:03;;;;;;;;;;;;;;;13.18;64.40;100851.72;5117323;28;19922;-69
2022/05/09 04:38:50;;;;;;;;;;;;;;;13.18;64.24;100851.72;5118470;28;19962;-69
2022/05/09 04:41:37;;;;;;;;;;;;;;;13.17;64.34;100849.94;5117305;28;19938;-68
2022/05/09 04:44:22;;;;;;;;;;;;;;;13.17;64.56;100852.56;5117079;28;19922;-69
2022/05/09 04:47:05;;;;;;;;;;;;;;;13.16;64.37;100856.91;5116770;28;19923;-69
2022/05/09 04:49:49;;;;;;;;;;;;;;;13.15;64.38;100855.13;5118192;28;19923;-69
2022/05/09 04:52:36;;;;;;;;;;;;;;;13.15;64.60;100849.94;5116698;28;20014;-69
2022/05/09 04:55:20;;;;;;;;;;;;;;;13.15;64.41;100855.13;5116680;28;19967;-68
2022/05/09 04:58:04;;;;;;;;;;;;;;;13.14;64.37;100858.59;5117009;28;20008;-69
2022/05/09 05:00:48;;;;;;;;;;;;;;;13.13;64.54;100851.63;5117576;28;20358;-69
2022/05/09 05:03:32;;;;;;;;;;;;;;;13.13;64.60;100862.03;5117107;28;20320;-69
2022/05/09 05:06:16;;;;;;;;;;;;;;;13.13;64.70;100859.44;5116649;28;19922;-69
2022/05/09 05:09:00;;;;;;;;;;;;;;;13.13;64.26;100861.19;5116508;28;19951;-69
2022/05/09 05:11:44;;;;;;;;;;;;;;;13.13;64.26;100859.44;5116280;28;19922;-69
2022/05/09 05:14:28;;;;;;;;;;;;;;;13.13;64.60;100861.19;5117467;28;20282;-69
2022/05/09 05:17:18;;;;;;;;;;;;;;;13.13;64.31;100862.03;5117533;28;19922;-69
2022/05/09 05:20:04;;;;;;;;;;;;;;;13.13;64.31;100859.44;5116720;28;19958;-68
2022/05/09 05:22:52;;;;;;;;;;;;;;;13.13;64.40;100863.78;5116539;28;19922;-69
2022/05/09 05:25:41;;;;;;;;;;;;;;;13.12;64.53;100857.69;5116829;28;20298;-69
2022/05/09 05:28:24;;;;;;;;;;;;;;;13.13;64.59;100867.25;5115979;28;19980;-69
2022/05/09 05:31:15;;;;;;;;;;;;;;;13.12;64.71;100855.09;5116803;28;19926;-69
2022/05/09 05:34:02;;;;;;;;;;;;;;;13.13;64.64;100858.56;5116108;28;19989;-69
2022/05/09 05:36:46;;;;;;;;;;;;;;;13.12;64.33;100862.03;5116314;28;19958;-68
2022/05/09 05:39:34;;;;;;;;;;;;;;;13.10;64.58;100861.97;5116050;28;20417;-69
2022/05/09 05:42:19;;;;;;;;;;;;;;;13.10;64.61;100867.19;5116314;28;19939;-69
2022/05/09 05:45:05;;;;;;;;;;;;;;;13.10;64.56;100864.56;5116260;28;20382;-68
2022/05/09 05:47:53;;;;;;;;;;;;;;;13.10;64.62;100864.56;5116046;28;20382;-68
2022/05/09 05:50:38;;;;;;;;;;;;;;;13.10;64.52;100867.19;5116128;28;19939;-69
2022/05/09 05:53:22;;;;;;;;;;;;;;;13.09;64.58;100868.91;5116672;28;19922;-69
2022/05/09 05:56:06;;;;;;;;;;;;;;;13.08;64.61;100867.16;5115333;28;19922;-69
2022/05/09 05:58:50;;;;;;;;;;;;;;;13.09;64.62;100876.72;5116085;28;19926;-69
2022/05/09 06:01:34;;;;;;;;;;;;;;;13.09;64.64;100875.84;5115987;28;19969;-69
2022/05/09 06:04:19;;;;;;;;;;;;;;;13.08;64.58;100876.69;5115915;28;19923;-69
2022/05/09 06:07:06;;;;;;;;;;;;;;;13.08;64.49;100880.19;5115207;28;19923;-69
2022/05/09 06:09:51;;;;;;;;;;;;;;;13.08;64.34;100874.97;5115095;28;19922;-69
2022/05/09 06:12:35;;;;;;;;;;;;;;;13.05;64.51;100874.91;5116788;28;20415;-69
2022/05/09 06:15:24;;;;;;;;;;;;;;;13.05;64.56;100877.50;5116223;28;20388;-69
2022/05/09 06:18:12;;;;;;;;;;;;;;;13.05;64.68;100880.13;5115783;28;20006;-69
2022/05/09 06:20:56;;;;;;;;;;;;;;;13.05;64.38;100876.66;5115130;28;20004;-69
2022/05/09 06:23:43;;;;;;;;;;;;;;;13.05;64.41;100871.44;5115124;28;19922;-68
2022/05/09 06:26:27;;;;;;;;;;;;;;;13.05;64.41;100877.50;5115565;28;20089;-69
2022/05/09 06:29:14;;;;;;;;;;;;;;;13.06;64.38;100876.66;5114542;28;19923;-69
2022/05/09 06:31:59;;;;;;;;;;;;;;;13.07;64.71;100874.97;5115777;28;20397;-69
2022/05/09 06:34:43;;;;;;;;;;;;;;;13.07;64.52;100872.34;5114743;28;19923;-69
2022/05/09 06:37:29;;;;;;;;;;;;;;;13.05;64.69;100869.69;5115721;28;19922;-69
2022/05/09 06:40:12;;;;;;;;;;;;;;;13.05;64.47;100864.50;5115212;28;19973;-68
2022/05/09 06:42:56;;;;;;;;;;;;;;;13.06;64.50;100868.00;5114927;28;20409;-69
2022/05/09 06:45:41;;;;;;;;;;;;;;;13.05;64.56;100867.09;5115649;28;19979;-69
2022/05/09 06:48:25;;;;;;;;;;;;;;;13.06;64.75;100866.25;5114750;28;19923;-69
2022/05/09 06:51:09;;;;;;;;;;;;;;;13.06;64.52;100868.00;5115513;28;19922;-69
2022/05/09 06:53:53;;;;;;;;;;;;;;;13.05;64.69;100871.44;5115341;28;19966;-68
2022/05/09 06:56:42;;;;;;;;;;;;;;;13.05;64.65;100866.25;5115329;28;19923;-69
2022/05/09 06:59:27;;;;;;;;;;;;;;;13.05;64.62;100874.03;5114467;28;19924;-69
2022/05/09 07:02:16;;;;;;;;;;;;;;;13.04;64.45;100865.34;5114360;28;19965;-69
2022/05/09 07:05:05;;;;;;;;;;;;;;;13.05;64.36;100869.69;5115186;28;19992;-69
2022/05/09 07:07:49;;;;;;;;;;;;;;;13.05;64.65;100863.63;5113758;28;20298;-69
2022/05/09 07:10:35;;;;;;;;;;;;;;;13.06;64.51;100855.84;5114766;28;20312;-69
2022/05/09 07:13:19;;;;;;;;;;;;;;;13.07;64.63;100861.94;5115562;28;19981;-69
2022/05/09 07:16:04;;;;;;;;;;;;;;;13.09;64.43;100860.22;5114458;28;19961;-69
2022/05/09 07:18:48;;;;;;;;;;;;;;;13.08;64.57;100858.47;5115390;28;19970;-68
2022/05/09 07:21:32;;;;;;;;;;;;;;;13.09;64.59;100861.13;5115016;28;19970;-69
2022/05/09 07:24:16;;;;;;;;;;;;;;;13.09;64.56;100861.13;5115103;28;19923;-69
2022/05/09 07:27:00;;;;;;;;;;;;;;;13.08;64.87;100854.16;5115235;28;19922;-69
2022/05/09 07:29:44;;;;;;;;;;;;;;;13.10;64.87;100852.47;5114750;28;19922;-69
2022/05/09 07:32:28;;;;;;;;;;;;;;;13.10;64.96;100860.28;5114399;28;19968;-69
2022/05/09 07:35:13;;;;;;;;;;;;;;;13.11;64.66;100858.53;5114039;28;19966;-69
2022/05/09 07:38:02;;;;;;;;;;;;;;;13.12;64.88;100860.28;5113397;28;20015;-69
2022/05/09 07:40:49;;;;;;;;;;;;;;;13.13;64.76;100858.56;5113810;28;19923;-69
2022/05/09 07:43:33;;;;;;;;;;;;;;;13.13;64.95;100862.03;5113865;28;19965;-69
2022/05/09 07:46:17;;;;;;;;;;;;;;;13.14;64.58;100862.94;5114669;28;19962;-69
2022/05/09 07:49:05;;;;;;;;;;;;;;;13.14;64.83;100857.72;5114582;28;20049;-68
2022/05/09 07:51:49;;;;;;;;;;;;;;;13.14;65.02;100848.19;5113790;28;20056;-69
2022/05/09 07:54:38;;;;;;;;;;;;;;;13.15;64.87;100846.47;5114363;28;20339;-69
2022/05/09 07:57:22;;;;;;;;;;;;;;;13.14;64.73;100842.97;5113773;28;19977;-69
2022/05/09 08:00:07;;;;;;;;;;;;;;;13.16;64.94;100840.38;5114155;28;19923;-69
2022/05/09 08:02:54;;;;;;;;;;;;;;;13.16;64.81;100843.00;5113656;28;19957;-69
2022/05/09 08:05:38;;;;;;;;;;;;;;;13.16;64.88;100841.28;5113464;28;19962;-69
2022/05/09 08:08:22;;;;;;;;;;;;;;;13.16;65.08;100854.28;5113979;28;19942;-68
2022/05/09 08:11:06;;;;;;;;;;;;;;;13.19;64.75;100845.66;5113796;28;19923;-69
2022/05/09 08:13:50;;;;;;;;;;;;;;;13.20;65.04;100845.69;5113675;28;19926;-69
2022/05/09 08:16:37;;;;;;;;;;;;;;;13.22;64.92;100850.94;5114270;28;19976;-70
2022/05/09 08:19:29;;;;;;;;;;;;;;;13.23;64.88;100850.97;5113410;28;20282;-69
2022/05/09 08:22:13;;;;;;;;;;;;;;;13.25;64.93;100845.78;5113178;28;19923;-68
2022/05/09 08:25:00;;;;;;;;;;;;;;;13.26;64.89;100850.13;5114288;28;20291;-69
2022/05/09 08:27:44;;;;;;;;;;;;;;;13.26;65.06;100847.53;5113009;28;19965;-68
2022/05/09 08:30:33;;;;;;;;;;;;;;;13.28;64.94;100855.34;5113742;28;19922;-69
2022/05/09 08:33:21;;;;;;;;;;;;;;;13.29;65.04;100851.91;5114561;28;20041;-69
2022/05/09 08:36:09;;;;;;;;;;;;;;;13.30;65.18;100846.75;5112977;28;19968;-69
2022/05/09 08:38:56;;;;;;;;;;;;;;;13.31;64.98;100850.22;5113035;28;20427;-69
2022/05/09 08:42:18;;;;;;;;;;;;;;;13.32;64.99;100850.22;5113114;28;19976;-69
2022/05/09 08:45:02;;;;;;;;;;;;;;;13.33;64.87;100849.38;5091544;28;19924;-69
2022/05/09 08:47:49;;;;;;;;;;;;;;;13.35;65.07;100852.03;5114461;28;19923;-70
2022/05/09 08:50:39;;;;;;;;;;;;;;;13.37;65.28;100852.94;5113986;28;20014;-69
2022/05/09 08:53:27;;;;;;;;;;;;;;;13.38;64.95;100852.94;5113875;28;19923;-69
2022/05/09 08:56:20;;;;;;;;;;;;;;;13.39;64.96;100854.72;5113243;28;20036;-68
2022/05/09 08:59:05;;;;;;;;;;;;;;;13.41;65.08;100854.75;5112855;28;20278;-69
2022/05/09 09:01:52;;;;;;;;;;;;;;;13.42;65.03;100853.91;5113828;28;19945;-68
2022/05/09 09:04:36;;;;;;;;;;;;;;;13.44;65.11;100849.59;5112397;28;19923;-69
2022/05/09 09:07:21;;;;;;;;;;;;;;;13.45;64.96;100848.75;5112856;28;19930;-69
2022/05/09 09:10:06;;;;;;;;;;;;;;;13.47;65.03;100847.06;5112773;28;19962;-68
2022/05/09 09:12:57;;;;;;;;;;;;;;;13.49;65.00;100845.34;5112853;28;19985;-68
2022/05/09 09:15:41;;;;;;;;;;;;;;;13.52;65.16;100844.53;5114995;28;20011;-69
2022/05/09 09:18:44;;;;;;;;;;;;;;;13.54;65.19;100845.44;5117428;28;19922;-69
2022/05/09 09:21:31;;;;;;;;;;;;;;;13.57;65.06;100844.59;5131141;27;19961;-69
2022/05/09 09:24:34;;;;;;;;;;;;;;;13.58;64.93;100844.63;5117764;28;19923;-69
2022/05/09 09:27:21;;;;;;;;;;;;;;;13.60;65.03;100842.94;5117234;28;20000;-69
2022/05/09 09:30:14;;;;;;;;;;;;;;;13.62;65.30;100846.44;5117264;28;19923;-69
2022/05/09 09:32:59;;;;;;;;;;;;;;;13.63;64.86;100848.19;5116109;28;19923;-69
2022/05/09 09:36:00;;;;;;;;;;;;;;;13.64;65.17;100834.31;5116365;28;20275;-70
2022/05/09 09:38:57;;;;;;;;;;;;;;;13.66;64.96;100834.34;5116335;28;20002;-69
2022/05/09 09:41:45;;;;;;;;;;;;;;;13.67;65.29;100834.34;5115885;28;19926;-69
2022/05/09 09:44:29;;;;;;;;;;;;;;;13.69;65.10;100837.00;5116293;28;19981;-70
2022/05/09 09:47:19;;;;;;;;;;;;;;;13.70;65.03;100829.19;5115830;28;19968;-70
2022/05/09 09:50:14;;;;;;;;;;;;;;;13.72;65.11;100823.13;5115726;28;19922;-69
2022/05/09 09:53:00;;;;;;;;;;;;;;;13.74;64.93;100824.03;5115814;28;19969;-69
2022/05/09 09:55:58;;;;;;;;;;;;;;;13.75;65.04;100818.84;5116553;28;20431;-70
2022/05/09 09:58:43;;;;;;;;;;;;;;;13.77;65.06;100814.53;5116968;28;19968;-69
2022/05/09 10:01:32;;;;;;;;;;;;;;;13.79;65.02;100820.66;5116619;28;19976;-69
2022/05/09 10:04:27;;;;;;;;;;;;;;;13.83;64.92;100813.75;5115913;28;19922;-69
2022/05/09 10:07:24;;;;;;;;;;;;;;;13.85;64.85;100812.03;5115661;28;19923;-69
2022/05/09 10:10:13;;;;;;;;;;;;;;;13.85;64.99;100801.63;5115469;28;19958;-70
2022/05/09 10:12:58;;;;;;;;;;;;;;;13.85;64.95;100799.91;5115417;28;20023;-71
2022/05/09 10:15:42;;;;;;;;;;;;;;;13.86;65.23;100800.78;5115567;28;20342;-70
2022/05/09 10:18:30;;;;;;;;;;;;;;;13.89;65.08;100800.81;5116564;28;19922;-69
2022/05/09 10:27:31;;;;;;;;;;;;;;;13.92;64.96;100793.06;5115920;28;19926;-69
2022/05/09 10:30:22;;;;;;;;;;;;;;;13.93;65.12;100797.41;5114808;28;19938;-70
2022/05/09 10:33:16;;;;;;;;;;;;;;;13.94;65.20;100793.06;5115960;28;19922;-69
2022/05/09 10:36:02;;;;;;;;;;;;;;;13.95;65.17;100787.88;5116042;28;19923;-69
2022/05/09 10:38:48;;;;;;;;;;;;;;;13.97;64.94;100778.34;5116250;28;19994;-69
2022/05/09 10:41:41;;;;;;;;;;;;;;;13.99;65.03;100781.00;5115840;28;19971;-69
2022/05/09 10:44:28;;;;;;;;;;;;;;;14.00;65.18;100781.00;5115754;28;20294;-71
2022/05/09 10:47:35;;;;;;;;;;;;;;;14.00;64.92;100781.00;5115831;28;19921;-69
2022/05/09 10:50:29;;;;;;;;;;;;;;;14.03;64.97;100772.34;5115579;28;19922;-69
2022/05/09 10:53:33;;;;;;;;;;;;;;;14.07;65.18;100761.09;5115016;28;20065;-70
2022/05/09 10:56:24;;;;;;;;;;;;;;;14.08;64.97;100762.00;5114832;28;19962;-69
2022/05/09 10:59:09;;;;;;;;;;;;;;;14.08;65.11;100757.66;5114511;28;19965;-70
2022/05/09 11:02:00;;;;;;;;;;;;;;;14.11;65.06;100754.19;5114362;28;19948;-70
2022/05/09 11:04:50;;;;;;;;;;;;;;;14.12;65.15;100755.94;5114524;28;20409;-70
2022/05/09 11:07:38;;;;;;;;;;;;;;;14.11;65.25;100759.41;5113933;28;20275;-70
2022/05/09 11:10:26;;;;;;;;;;;;;;;14.12;65.17;100755.94;5114832;28;20385;-70
2022/05/09 11:13:16;;;;;;;;;;;;;;;14.13;65.10;100757.69;5115017;28;19923;-70
2022/05/09 11:16:09;;;;;;;;;;;;;;;14.13;64.96;100748.16;5114000;28;19922;-69
2022/05/09 11:19:12;;;;;;;;;;;;;;;14.14;65.01;100741.19;5115404;28;19968;-69
2022/05/09 11:22:03;;;;;;;;;;;;;;;14.14;65.24;100744.69;5113906;28;19923;-69
2022/05/09 11:24:56;;;;;;;;;;;;;;;14.18;65.10;100739.50;5114029;28;19923;-69
2022/05/09 11:28:07;;;;;;;;;;;;;;;14.17;65.23;100730.81;5114266;28;20011;-69
2022/05/09 11:31:13;;;;;;;;;;;;;;;14.19;64.93;100733.44;5109062;28;20011;-70
2022/05/09 11:34:17;;;;;;;;;;;;;;;14.24;65.20;100743.09;5114598;28;19927;-70
2022/05/09 11:37:02;;;;;;;;;;;;;;;14.28;65.30;100738.78;5128201;27;19972;-70
2022/05/09 11:39:55;;;;;;;;;;;;;;;14.31;65.04;100733.59;5114721;28;19965;-69
2022/05/09 11:45:58;;;;;;;;;;;;;;;14.38;65.07;100734.53;5114583;28;19926;-69
2022/05/09 11:48:42;;;;;;;;;;;;;;;14.40;65.33;100725.00;5114718;28;19975;-70
2022/05/09 11:51:29;;;;;;;;;;;;;;;14.40;65.04;100725.00;5113368;28;19941;-70
2022/05/09 11:54:24;;;;;;;;;;;;;;;14.38;65.03;100711.06;5114593;28;19958;-69
2022/05/09 11:57:38;;;;;;;;;;;;;;;14.37;65.09;100706.72;5114208;28;20328;-69
2022/05/09 12:00:30;;;;;;;;;;;;;;;14.37;65.20;100701.50;5112262;28;19926;-70
2022/05/09 12:03:37;;;;;;;;;;;;;;;14.36;65.15;100698.00;5114395;28;20301;-69
2022/05/09 12:06:32;;;;;;;;;;;;;;;14.37;65.12;100704.13;5113300;28;19922;-69
2022/05/09 12:09:36;;;;;;;;;;;;;;;14.37;65.02;100701.50;5114339;28;20101;-69
2022/05/09 12:12:43;;;;;;;;;;;;;;;14.39;65.13;100705.88;5114348;28;20412;-69
2022/05/09 12:15:34;;;;;;;;;;;;;;;14.39;65.17;100698.03;5111868;28;19924;-69
2022/05/09 12:18:20;;;;;;;;;;;;;;;14.41;65.02;100695.44;5113837;28;19922;-69
2022/05/09 12:21:12;;;;;;;;;;;;;;;14.43;65.08;100701.56;5114139;28;19922;-69
2022/05/09 12:24:08;;;;;;;;;;;;;;;14.44;65.39;100695.47;5113857;28;19969;-69
2022/05/09 12:26:54;;;;;;;;;;;;;;;14.46;65.12;100694.66;5114422;28;19922;-69
2022/05/09 12:29:48;;;;;;;;;;;;;;;14.49;65.17;100687.69;5113391;28;19939;-69
2022/05/09 12:32:32;;;;;;;;;;;;;;;14.51;65.18;100688.59;5114110;28;19923;-70
2022/05/09 12:35:19;;;;;;;;;;;;;;;14.52;65.11;100691.22;5113450;28;20023;-69
2022/05/09 12:38:06;;;;;;;;;;;;;;;14.54;65.05;100683.41;5113831;28;19923;-69
2022/05/09 12:40:57;;;;;;;;;;;;;;;14.54;65.02;100671.25;5113043;28;19941;-70
2022/05/09 12:43:44;;;;;;;;;;;;;;;14.54;65.11;100679.09;5113070;28;19969;-69
2022/05/09 12:46:34;;;;;;;;;;;;;;;14.53;65.23;100677.34;5114247;28;19922;-69
2022/05/09 12:49:23;;;;;;;;;;;;;;;14.53;65.13;100672.13;5112727;28;19983;-69
2022/05/09 12:52:20;;;;;;;;;;;;;;;14.54;65.04;100671.25;5116922;28;19922;-69
2022/05/09 12:59:06;;;;;;;16.85;9.07;;;;;;;14.61;65.02;100669.59;5132056;27;20143;-70
2022/05/09 13:01:55;;;;;;;12.75;8.43;;;;;;;14.62;65.29;100661.75;5145140;27;20046;-69
2022/05/09 13:04:45;;;;;;;13.55;8.68;;;;;;;14.66;65.29;100669.63;5116080;28;20128;-70
2022/05/09 13:07:30;;;;;;;10.27;8.55;;;;;;;14.66;65.32;100661.78;5145374;27;20110;-70
2022/05/09 13:10:19;;;;;;;12.23;8.65;;;;;;;14.67;65.18;100660.94;5131694;28;20134;-70
2022/05/09 13:13:06;;;;;;;12.70;8.95;;;;;;;14.66;65.21;100660.03;5115985;28;20046;-70
2022/05/09 13:15:51;;;;;;;11.43;8.13;;;;;;;14.66;65.38;100654.81;5116423;28;20050;-70
2022/05/09 13:18:36;;;;;;;10.32;7.78;;;;;;;14.66;65.19;100654.81;5131010;28;20046;-69
2022/05/09 13:21:25;;;;;;;9.35;7.55;;;;;;;14.66;65.46;100641.78;5116016;28;20176;-70
2022/05/09 13:24:19;;;;;;;12.25;8.48;;;;;;;14.68;65.31;100639.25;5116092;28;20100;-69
2022/05/09 13:27:08;;;;;;;8.98;7.57;;;;;;;14.69;65.34;100641.00;5115732;28;20046;-69
2022/05/09 13:29:54;;;;;;;16.88;9.07;;;;;;;14.68;65.38;100639.25;5131601;28;20045;-70
2022/05/09 13:32:41;;;;;;;13.50;8.70;;;;;;;14.71;65.32;100634.06;5116118;28;20053;-70
2022/05/09 13:35:26;;;;;;;13.65;8.70;;;;;;;14.72;65.39;100636.66;5130712;28;20119;-69
2022/05/09 13:38:19;;;;;;;12.05;8.25;;;;;;;14.73;65.32;100627.09;5130688;28;20043;-69
2022/05/09 13:41:14;;;;;;;11.00;8.07;;;;;;;14.73;65.30;100622.75;5115998;28;20038;-70
2022/05/09 13:44:01;;;;;;;11.73;8.40;;;;;;;14.77;65.28;100621.03;5130737;28;20566;-69
2022/05/09 13:46:45;;;;;;;13.27;9.23;;;;;;;14.77;65.63;100611.50;5116045;28;20413;-69
2022/05/09 13:49:32;;;;;;;12.43;8.55;;;;;;;14.78;65.39;100614.97;5115737;28;20525;-69
2022/05/09 13:52:34;;;;;;;12.68;8.73;;;;;;;14.82;65.66;100610.63;5115410;28;20104;-69
2022/05/09 13:55:32;;;;;;;10.82;8.65;;;;;;;14.84;65.44;100611.53;5115368;28;20235;-69
2022/05/09 13:58:23;;;;;;;10.55;8.68;;;;;;;14.85;65.35;100605.44;5114967;28;20451;-69
2022/05/09 14:01:12;;;;;;;9.73;8.38;;;;;;;14.84;65.62;100609.81;5114981;28;20418;-69
2022/05/09 14:04:02;;;;;;;14.82;9.82;;;;;;;14.86;65.50;100612.41;5115274;28;20051;-69
2022/05/09 14:06:51;;;;;;;11.77;8.57;;;;;;;14.85;65.41;100611.56;5115230;28;20159;-70
2022/05/09 14:09:35;;;;;;;12.77;8.80;;;;;;;14.87;65.45;100607.19;5104455;28;20051;-70